Time;durP1;ratioP1;P1;durP2;ratioP2;P2;SDS_P1;SDS_P2;PMS_P1;PMS_P2;Temp;Humidity;BMP_temperature;BMP_pressure;BME280_temperature;BME280_humidity;BME280_pressure;Samples;Min_cycle;Max_cycle;Signal;HPM_P1;HPM_P2
2022/10/30 00:00:44;;;;;;;;;;;;;;;;;;5025886;28;19913;-37
2022/10/30 00:03:09;;;;;;;;;;;;;;;;;;5023237;28;20306;-37
2022/10/30 00:05:34;;;;;;;;;;;;;;;;;;5019829;28;19921;-37
2022/10/30 00:07:59;;;;;;;;;;;;;;;;;;5023262;28;20363;-37
2022/10/30 00:10:24;;;;;;;;;;;;;;;;;;5018967;28;19917;-38
2022/10/30 00:12:49;;;;;;;;;;;;;;;;;;5020733;28;19948;-37
2022/10/30 00:15:15;;;;;;;;;;;;;;;;;;5020366;28;20089;-37
2022/10/30 00:17:40;;;;;;;;;;;;;;;;;;5022542;28;19924;-38
2022/10/30 00:20:05;;;;;;;;;;;;;;;;;;5020807;28;19921;-38
2022/10/30 00:22:30;;;;;;;;;;;;;;;;;;5024938;28;19917;-38
2022/10/30 00:24:55;;;;;;;;;;;;;;;;;;5018822;28;19917;-37
2022/10/30 00:27:20;;;;;;;;;;;;;;;;;;5022387;28;19928;-37
2022/10/30 00:29:46;;;;;;;;;;;;;;;;;;5020177;28;20440;-37
2022/10/30 00:32:11;;;;;;;;;;;;;;;;;;5022886;28;19929;-37
2022/10/30 00:34:36;;;;;;;;;;;;;;;;;;5020306;28;19963;-37
2022/10/30 00:37:01;;;;;;;;;;;;;;;;;;5021957;28;19921;-37
2022/10/30 00:39:26;;;;;;;;;;;;;;;;;;5024435;28;20447;-37
2022/10/30 00:41:51;;;;;;;;;;;;;;;;;;5019871;28;19947;-37
2022/10/30 00:44:17;;;;;;;;;;;;;;;;;;5021927;28;19927;-37
2022/10/30 00:46:42;;;;;;;;;;;;;;;;;;5021070;28;20322;-37
2022/10/30 00:49:07;;;;;;;;;;;;;;;;;;5021278;28;19928;-37
2022/10/30 00:51:32;;;;;;;;;;;;;;;;;;5019427;28;19917;-37
2022/10/30 00:53:57;;;;;;;;;;;;;;;;;;5019417;28;20295;-37
2022/10/30 00:56:22;;;;;;;;;;;;;;;;;;5021617;28;19925;-38
2022/10/30 00:58:48;;;;;;;;;;;;;;;;;;5021150;28;20008;-37
2022/10/30 01:01:13;;;;;;;;;;;;;;;;;;5021780;28;20110;-37
2022/10/30 01:03:38;;;;;;;;;;;;;;;;;;5022708;28;20310;-37
2022/10/30 01:06:03;;;;;;;;;;;;;;;;;;5020491;28;19917;-38
2022/10/30 01:08:28;;;;;;;;;;;;;;;;;;5018316;28;19967;-37
2022/10/30 01:10:53;;;;;;;;;;;;;;;;;;5020546;28;20312;-37
2022/10/30 01:13:18;;;;;;;;;;;;;;;;;;5019423;28;20034;-37
2022/10/30 01:15:44;;;;;;;;;;;;;;;;;;5019268;28;19913;-37
2022/10/30 01:18:09;;;;;;;;;;;;;;;;;;5016812;28;20322;-37
2022/10/30 01:20:34;;;;;;;;;;;;;;;;;;5022875;28;19960;-38
2022/10/30 01:22:59;;;;;;;;;;;;;;;;;;5019154;28;19953;-37
2022/10/30 01:25:24;;;;;;;;;;;;;;;;;;5020030;28;19918;-37
2022/10/30 01:27:49;;;;;;;;;;;;;;;;;;5020823;28;19941;-37
2022/10/30 01:30:15;;;;;;;;;;;;;;;;;;5018374;28;19917;-37
2022/10/30 01:32:40;;;;;;;;;;;;;;;;;;5020951;28;20032;-37
2022/10/30 01:35:05;;;;;;;;;;;;;;;;;;5018489;28;19913;-37
2022/10/30 01:37:30;;;;;;;;;;;;;;;;;;5017543;28;20152;-36
2022/10/30 01:39:55;;;;;;;;;;;;;;;;;;5020783;28;20421;-36
2022/10/30 01:42:20;;;;;;;;;;;;;;;;;;5021072;28;19920;-37
2022/10/30 01:44:45;;;;;;;;;;;;;;;;;;5019127;28;19920;-36
2022/10/30 01:47:11;;;;;;;;;;;;;;;;;;5020006;28;20334;-38
2022/10/30 01:49:36;;;;;;;;;;;;;;;;;;5018001;28;19920;-37
2022/10/30 01:52:01;;;;;;;;;;;;;;;;;;5020261;28;19913;-37
2022/10/30 01:54:26;;;;;;;;;;;;;;;;;;5019601;28;19917;-37
2022/10/30 01:56:51;;;;;;;;;;;;;;;;;;5019825;28;19932;-36
2022/10/30 01:59:16;;;;;;;;;;;;;;;;;;5020063;28;19927;-37
2022/10/30 02:01:42;;;;;;;;;;;;;;;;;;5019463;28;20452;-36
2022/10/30 02:04:07;;;;;;;;;;;;;;;;;;5017210;28;20536;-36
2022/10/30 02:06:32;;;;;;;;;;;;;;;;;;5020231;28;19917;-38
2022/10/30 02:08:57;;;;;;;;;;;;;;;;;;5017452;28;19917;-37
2022/10/30 02:11:22;;;;;;;;;;;;;;;;;;5017920;28;20465;-37
2022/10/30 02:13:47;;;;;;;;;;;;;;;;;;5020062;28;19921;-37
2022/10/30 02:16:12;;;;;;;;;;;;;;;;;;5016302;28;20008;-37
2022/10/30 02:18:39;;;;;;;;;;;;;;;;;;5017613;28;19963;-36
2022/10/30 02:21:05;;;;;;;;;;;;;;;;;;5021873;28;19920;-37
2022/10/30 02:23:31;;;;;;;;;;;;;;;;;;5014683;28;19941;-36
2022/10/30 02:25:56;;;;;;;;;;;;;;;;;;5015287;28;19953;-37
2022/10/30 02:28:22;;;;;;;;;;;;;;;;;;5018979;28;19949;-37
2022/10/30 02:30:47;;;;;;;;;;;;;;;;;;5016776;28;19917;-36
2022/10/30 02:33:12;;;;;;;;;;;;;;;;;;5022209;28;19968;-36
2022/10/30 02:35:37;;;;;;;;;;;;;;;;;;5016422;28;19956;-37
2022/10/30 02:38:02;;;;;;;;;;;;;;;;;;5023160;28;19959;-37
2022/10/30 02:40:27;;;;;;;;;;;;;;;;;;5021092;28;19921;-36
2022/10/30 02:42:53;;;;;;;;;;;;;;;;;;5025922;28;19913;-37
2022/10/30 02:45:19;;;;;;;;;;;;;;;;;;5022848;28;19921;-38
2022/10/30 02:47:44;;;;;;;;;;;;;;;;;;5024777;28;19913;-36
2022/10/30 02:50:09;;;;;;;;;;;;;;;;;;5021691;28;20004;-37
2022/10/30 02:52:34;;;;;;;;;;;;;;;;;;5021882;28;20412;-37
2022/10/30 02:54:59;;;;;;;;;;;;;;;;;;5023846;28;19917;-36
2022/10/30 02:57:24;;;;;;;;;;;;;;;;;;5024122;28;19966;-37
2022/10/30 02:59:49;;;;;;;;;;;;;;;;;;5025518;28;20366;-37
2022/10/30 03:02:15;;;;;;;;;;;;;;;;;;5017964;28;19922;-37
2022/10/30 03:04:40;;;;;;;;;;;;;;;;;;5022668;28;19913;-37
2022/10/30 03:07:05;;;;;;;;;;;;;;;;;;5026260;28;20345;-37
2022/10/30 03:09:30;;;;;;;;;;;;;;;;;;5025121;28;20040;-37
2022/10/30 03:11:55;;;;;;;;;;;;;;;;;;5027535;28;19917;-37
2022/10/30 03:14:20;;;;;;;;;;;;;;;;;;5024766;28;20275;-37
2022/10/30 03:16:45;;;;;;;;;;;;;;;;;;5024520;28;20376;-37
2022/10/30 03:19:11;;;;;;;;;;;;;;;;;;5024595;28;20370;-37
2022/10/30 03:21:36;;;;;;;;;;;;;;;;;;5026735;28;19921;-37
2022/10/30 03:24:01;;;;;;;;;;;;;;;;;;5023484;28;20366;-37
2022/10/30 03:26:26;;;;;;;;;;;;;;;;;;5026601;28;19930;-37
2022/10/30 03:28:51;;;;;;;;;;;;;;;;;;5025202;28;19920;-36
2022/10/30 03:31:16;;;;;;;;;;;;;;;;;;5026838;28;19921;-36
2022/10/30 03:33:42;;;;;;;;;;;;;;;;;;5024001;28;20288;-37
2022/10/30 03:36:07;;;;;;;;;;;;;;;;;;5022142;28;19918;-37
2022/10/30 03:38:32;;;;;;;;;;;;;;;;;;5023650;28;20016;-36
2022/10/30 03:40:58;;;;;;;;;;;;;;;;;;5023100;28;19917;-37
2022/10/30 03:43:23;;;;;;;;;;;;;;;;;;5023145;28;19921;-37
2022/10/30 03:45:48;;;;;;;;;;;;;;;;;;5025259;28;19925;-36
2022/10/30 03:48:13;;;;;;;;;;;;;;;;;;5023238;28;19928;-37
2022/10/30 03:50:38;;;;;;;;;;;;;;;;;;5024805;28;19913;-37
2022/10/30 03:53:03;;;;;;;;;;;;;;;;;;5021385;28;20058;-37
2022/10/30 03:55:28;;;;;;;;;;;;;;;;;;5019091;28;19929;-36
2022/10/30 03:57:54;;;;;;;;;;;;;;;;;;5020956;28;20386;-36
2022/10/30 04:00:19;;;;;;;;;;;;;;;;;;5023485;28;19914;-37
2022/10/30 04:02:44;;;;;;;;;;;;;;;;;;5021140;28;19924;-37
2022/10/30 04:05:09;;;;;;;;;;;;;;;;;;5020368;28;19999;-37
2022/10/30 04:07:34;;;;;;;;;;;;;;;;;;5022286;28;19928;-38
2022/10/30 04:09:59;;;;;;;;;;;;;;;;;;5024593;28;20003;-37
2022/10/30 04:12:25;;;;;;;;;;;;;;;;;;5019514;28;19920;-36
2022/10/30 04:14:50;;;;;;;;;;;;;;;;;;5023588;28;19968;-37
2022/10/30 04:17:15;;;;;;;;;;;;;;;;;;5025085;28;19917;-36
2022/10/30 04:19:40;;;;;;;;;;;;;;;;;;5022618;28;19959;-37
2022/10/30 04:22:05;;;;;;;;;;;;;;;;;;5021057;28;19913;-36
2022/10/30 04:24:30;;;;;;;;;;;;;;;;;;5021737;28;19996;-36
2022/10/30 04:26:55;;;;;;;;;;;;;;;;;;5024863;28;20394;-36
2022/10/30 04:29:21;;;;;;;;;;;;;;;;;;5023607;28;19913;-36
2022/10/30 04:31:46;;;;;;;;;;;;;;;;;;5021381;28;19920;-37
2022/10/30 04:34:11;;;;;;;;;;;;;;;;;;5024517;28;19917;-37
2022/10/30 04:36:36;;;;;;;;;;;;;;;;;;5022484;28;19921;-36
2022/10/30 04:39:01;;;;;;;;;;;;;;;;;;5023517;28;19913;-37
2022/10/30 04:41:26;;;;;;;;;;;;;;;;;;5023924;28;19920;-37
2022/10/30 04:43:51;;;;;;;;;;;;;;;;;;5023822;28;19913;-36
2022/10/30 04:46:17;;;;;;;;;;;;;;;;;;5024668;28;20351;-37
2022/10/30 04:48:42;;;;;;;;;;;;;;;;;;5026790;28;19978;-37
2022/10/30 04:51:08;;;;;;;;;;;;;;;;;;5022684;28;19924;-36
2022/10/30 04:53:33;;;;;;;;;;;;;;;;;;5025360;28;19913;-37
2022/10/30 04:55:58;;;;;;;;;;;;;;;;;;5022902;28;20441;-38
2022/10/30 04:58:23;;;;;;;;;;;;;;;;;;5022107;28;20004;-37
2022/10/30 05:00:48;;;;;;;;;;;;;;;;;;5023883;28;19913;-36
2022/10/30 05:03:13;;;;;;;;;;;;;;;;;;5022267;28;19920;-37
2022/10/30 05:05:39;;;;;;;;;;;;;;;;;;5022682;28;19914;-37
2022/10/30 05:08:04;;;;;;;;;;;;;;;;;;5022132;28;20449;-36
2022/10/30 05:10:29;;;;;;;;;;;;;;;;;;5025136;28;19967;-37
2022/10/30 05:12:54;;;;;;;;;;;;;;;;;;5022905;28;19921;-36
2022/10/30 05:15:19;;;;;;;;;;;;;;;;;;5019394;28;19917;-36
2022/10/30 05:17:45;;;;;;;;;;;;;;;;;;5023048;28;20396;-36
2022/10/30 05:20:10;;;;;;;;;;;;;;;;;;5022677;28;19939;-36
2022/10/30 05:22:43;;;;;;;;;;;;;;;18.67;48.99;101871.69;5059268;27;19937;-36
2022/10/30 05:25:08;;;;;;;;;;;;;;;18.65;48.88;101868.44;5059728;28;19917;-36
2022/10/30 05:27:33;;;;;;;;;;;;;;;18.64;48.68;101869.53;5058631;28;19931;-36
2022/10/30 05:29:59;;;;;;;;;;;;;;;18.62;48.71;101866.25;5058670;28;19917;-37
2022/10/30 05:32:24;;;;;;;;;;;;;;;18.61;48.80;101860.00;5059463;28;19921;-35
2022/10/30 05:34:49;;;;;;;;;;;;;;;18.61;48.88;101864.63;5060411;28;19916;-34
2022/10/30 05:37:14;;;;;;;;;;;;;;;18.57;48.85;101860.84;5057394;28;20370;-34
2022/10/30 05:39:40;;;;;;;;;;;;;;;18.55;49.02;101869.25;5057715;28;20230;-34
2022/10/30 05:42:05;;;;;;;;;;;;;;;18.55;49.10;101863.03;5053961;28;19921;-34
2022/10/30 05:44:31;;;;;;;;;;;;;;;18.56;49.24;101860.03;5057971;28;20059;-34
2022/10/30 05:46:56;;;;;;;;;;;;;;;18.60;49.36;101861.09;5058079;28;19921;-34
2022/10/30 05:49:21;;;;;;;;;;;;;;;18.64;49.69;101873.06;5059199;28;19956;-34
2022/10/30 05:51:46;;;;;;;;;;;;;;;18.66;49.21;101872.78;5058575;28;19916;-34
2022/10/30 05:54:12;;;;;;;;;;;;;;;18.64;49.10;101872.25;5057959;28;20020;-34
2022/10/30 05:56:37;;;;;;;;;;;;;;;18.62;49.12;101877.09;5057255;28;20581;-34
2022/10/30 05:59:02;;;;;;;;;;;;;;;18.61;49.25;101870.06;5059521;28;19916;-34
2022/10/30 06:01:28;;;;;;;;;;;;;;;18.57;48.83;101867.09;5057255;28;20276;-34
2022/10/30 06:03:53;;;;;;;;;;;;;;;18.56;49.01;101870.88;5058854;28;19916;-34
2022/10/30 06:06:18;;;;;;;;;;;;;;;18.56;49.03;101868.16;5056217;28;19925;-34
2022/10/30 06:08:44;;;;;;;;;;;;;;;18.57;49.33;101866.28;5058853;28;19925;-34
2022/10/30 06:11:09;;;;;;;;;;;;;;;18.60;49.35;101866.53;5057834;28;20236;-34
2022/10/30 06:13:34;;;;;;;;;;;;;;;18.61;49.26;101859.19;5058016;28;20364;-34
2022/10/30 06:15:59;;;;;;;;;;;;;;;18.63;49.27;101859.75;5056660;28;19956;-34
2022/10/30 06:18:25;;;;;;;;;;;;;;;18.65;49.74;101860.31;5057815;28;19917;-34
2022/10/30 06:20:50;;;;;;;;;;;;;;;18.66;49.56;101857.31;5055610;28;19925;-34
2022/10/30 06:23:16;;;;;;;;;;;;;;;18.68;49.35;101852.44;5056974;28;19940;-34
2022/10/30 06:25:41;;;;;;;;;;;;;;;18.68;49.27;101863.31;5056068;28;20127;-34
2022/10/30 06:28:07;;;;;;;;;;;;;;;18.67;49.20;101874.41;5059295;28;19923;-34
2022/10/30 06:30:32;;;;;;;;;;;;;;;18.64;49.34;101872.25;5056525;28;19968;-34
2022/10/30 06:32:57;;;;;;;;;;;;;;;18.66;49.49;101867.34;5050978;28;19921;-34
2022/10/30 06:35:23;;;;;;;;;;;;;;;18.66;49.45;101872.78;5043515;28;19917;-34
2022/10/30 06:37:48;;;;;;;;;;;;;;;18.69;49.60;101861.41;5045673;28;20043;-34
2022/10/30 06:40:14;;;;;;;;;;;;;;;18.72;49.65;101874.41;5041663;28;19925;-34
2022/10/30 06:42:47;;;;;;;;;;;;;;;18.75;49.32;101871.16;5043532;28;20386;-34
2022/10/30 06:45:13;;;;;;;;;;;;;;;18.76;49.37;101863.81;5042524;28;19924;-34
2022/10/30 06:47:39;;;;;;;;;;;;;;;18.80;49.37;101865.69;5044950;28;19920;-34
2022/10/30 06:50:05;;;;;;;;;;;;;;;18.83;49.53;101865.13;5042963;28;19974;-34
2022/10/30 06:52:30;;;;;;;;;;;;;;;18.86;49.38;101870.03;5042415;28;20009;-34
2022/10/30 06:54:56;;;;;;;;;;;;;;;18.89;49.64;101869.47;5042153;28;19964;-34
2022/10/30 06:57:21;;;;;;;;;;;;;;;18.94;49.53;101874.06;5043822;28;20599;-34
2022/10/30 06:59:46;;;;;;;;;;;;;;;18.99;49.67;101880.28;5040079;28;19917;-34
2022/10/30 07:02:11;;;;;;;;;;;;;;;19.06;49.64;101876.50;5043484;28;19920;-34
2022/10/30 07:04:37;;;;;;;;;;;;;;;19.13;49.78;101874.28;5041211;28;19923;-34
2022/10/30 07:07:02;;;;;;;;;;;;;;;19.15;49.53;101877.53;5039722;28;19920;-34
2022/10/30 07:09:28;;;;;;;;;;;;;;;19.16;49.48;101877.25;5041012;28;20422;-34
2022/10/30 07:11:53;;;;;;;;;;;;;;;19.17;49.47;101875.34;5040068;28;19917;-34
2022/10/30 07:14:18;;;;;;;;;;;;;;;19.17;49.71;101881.59;5041630;28;20001;-34
2022/10/30 07:16:44;;;;;;;;;;;;;;;19.20;49.77;101880.22;5042530;28;20054;-34
2022/10/30 07:19:09;;;;;;;;;;;;;;;19.25;49.77;101877.50;5042254;28;19932;-34
2022/10/30 07:21:34;;;;;;;;;;;;;;;19.31;49.86;101876.38;5040632;28;19980;-34
2022/10/30 07:24:00;;;;;;;;;;;;;;;19.38;49.89;101879.59;5040462;28;20002;-34
2022/10/30 07:26:25;;;;;;;;;;;;;;;19.47;49.91;101883.34;5042091;28;19924;-34
2022/10/30 07:28:50;;;;;;;;;;;;;;;19.54;50.07;101881.16;5043520;28;19932;-34
2022/10/30 07:31:16;;;;;;;;;;;;;;;19.63;50.11;101881.41;5039915;28;19927;-34
2022/10/30 07:33:41;;;;;;;;;;;;;;;19.72;50.19;101878.88;5043802;28;19916;-34
2022/10/30 07:36:06;;;;;;;;;;;;;;;19.83;49.90;101872.28;5042290;28;19916;-34
2022/10/30 07:38:32;;;;;;;;;;;;;;;19.96;49.91;101866.22;5041858;28;19925;-34
2022/10/30 07:40:57;;;;;;;;;;;;;;;20.07;49.80;101862.31;5041166;28;19925;-34
2022/10/30 07:43:23;;;;;;;;;;;;;;;20.17;49.76;101856.78;5043427;28;19924;-34
2022/10/30 07:45:48;;;;;;;;;;;;;;;20.25;49.74;101855.34;5042107;28;20152;-34
2022/10/30 07:48:13;;;;;;;;;;;;;;;20.29;49.80;101847.41;5041705;28;20379;-34
2022/10/30 07:50:39;;;;;;;;;;;;;;;20.31;49.38;101850.69;5041551;28;19921;-34
2022/10/30 07:53:04;;;;;;;;;;;;;;;20.33;49.74;101843.84;5042242;28;19931;-34
2022/10/30 07:55:29;;;;;;;;;;;;;;;20.36;49.94;101842.47;5040690;28;20382;-34
2022/10/30 07:57:55;;;;;;;;;;;;;;;20.38;49.93;101841.06;5044896;28;19924;-34
2022/10/30 08:00:20;;;;;;;;;;;;;;;20.44;50.07;101836.41;5039943;28;20366;-34
2022/10/30 08:02:55;;;;;;;;;;;;;;;20.50;49.95;101832.56;5041928;28;19917;-34
2022/10/30 08:05:20;;;;;;;;;;;;;;;20.58;50.10;101822.94;5041420;28;20295;-34
2022/10/30 08:07:46;;;;;;;;;;;;;;;20.65;50.03;101817.97;5044367;28;19917;-34
2022/10/30 08:10:12;;;;;;;;;;;;;;;20.68;50.25;101820.94;5042173;28;19947;-34
2022/10/30 08:12:39;;;;;;;;;;;;;;;20.74;50.16;101819.75;5040868;28;19920;-34
2022/10/30 08:15:05;;;;;;;;;;;;;;;20.80;50.20;101815.06;5040041;28;19921;-34
2022/10/30 08:17:30;;;;;;;;;;;;;;;20.85;50.41;101817.75;5041373;28;19916;-34
2022/10/30 08:19:55;;;;;;;;;;;;;;;20.92;50.39;101806.47;5032908;28;19966;-35
2022/10/30 08:22:21;;;;;;;;;;;;;;;20.99;50.65;101813.16;5032918;28;20220;-35
2022/10/30 08:24:47;;;;;;;;;;;;;;;21.07;50.40;101818.00;5041046;28;20241;-34
2022/10/30 08:27:12;;;;;;;;;;;;;;;21.07;50.81;101822.63;5040920;28;20398;-35
2022/10/30 08:29:37;;;;;;;;;;;;;;;21.03;50.65;101822.41;5042615;28;19995;-35
2022/10/30 08:32:03;;;;;;;;;;;;;;;21.00;50.54;101825.69;5042572;28;20003;-35
2022/10/30 08:34:31;;;;;;;;;;;;;;;20.98;50.76;101838.00;5039196;28;19925;-35
2022/10/30 08:36:56;;;;;;;;;;;;;;;20.94;50.88;101832.31;5040258;28;19924;-35
2022/10/30 08:39:22;;;;;;;;;;;;;;;20.90;51.26;101834.00;5035577;28;19925;-35
2022/10/30 08:41:47;;;;;;;;;;;;;;;20.92;51.29;101837.25;5041316;28;20247;-35
2022/10/30 08:44:12;;;;;;;;;;;;;;;20.93;51.31;101840.78;5031123;28;20013;-35
2022/10/30 08:46:38;;;;;;;;;;;;;;;20.96;51.23;101841.00;5038091;28;20333;-35
2022/10/30 08:49:03;;;;;;;;;;;;;;;20.95;50.97;101841.31;5037938;28;20041;-34
2022/10/30 08:51:32;;;;;;;;;;;;;;;20.94;51.17;101845.13;5037112;28;19930;-35
2022/10/30 08:53:58;;;;;;;;;;;;;;;20.90;51.42;101841.38;5036820;28;20188;-35
2022/10/30 08:56:23;;;;;;;;;;;;;;;20.93;51.76;101846.22;5038755;28;20434;-35
2022/10/30 08:58:49;;;;;;;;;;;;;;;21.01;51.98;101853.78;5040410;28;20377;-35
2022/10/30 09:01:14;;;;;;;;;;;;;;;21.10;51.76;101849.28;5038037;28;19968;-35
2022/10/30 09:03:41;;;;;;;;;;;;;;;21.21;51.33;101847.25;5037120;28;20003;-35
2022/10/30 09:06:07;;;;;;;;;;;;;;;21.22;51.58;101849.69;5050737;28;20329;-35
2022/10/30 09:08:32;;;;;;;;;;;;;;;21.29;51.63;101843.91;5035413;28;19920;-35
2022/10/30 09:10:57;;;;;;;;;;;;;;;21.35;51.75;101845.44;5040129;28;19917;-34
2022/10/30 09:13:23;;;;;;;;;;;;;;;21.46;51.65;101848.84;5035942;28;19989;-34
2022/10/30 09:15:49;;;;;;;;;;;;;;;21.55;51.64;101849.81;5033911;28;20362;-35
2022/10/30 09:18:14;;;;;;;;;;;;;;;21.65;51.55;101845.00;5036816;28;19921;-34
2022/10/30 09:20:39;;;;;;;;;;;;;;;21.77;51.34;101844.56;5039149;28;20020;-34
2022/10/30 09:23:05;;;;;;;;;;;;;;;21.88;51.46;101850.66;5038348;28;20013;-34
2022/10/30 09:25:30;;;;;;;;;;;;;;;22.00;51.39;101859.19;5040053;28;19995;-34
2022/10/30 09:27:55;;;;;;;;;;;;;;;22.12;51.29;101845.94;5041900;28;20470;-34
2022/10/30 09:30:21;;;;;;;;;;;;;;;22.22;51.11;101850.38;5039449;28;19925;-34
2022/10/30 09:32:46;;;;;;;;;;;;;;;;;;5039802;28;20356;-34
2022/10/30 09:35:12;;;;;;;;;;;;;;;22.51;51.20;101853.69;5039928;28;19975;-35
2022/10/30 09:37:37;;;;;;;;;;;;;;;22.66;51.04;101854.50;5027840;28;19956;-35
2022/10/30 09:40:04;;;;;;;;;;;;;;;22.79;50.72;101853.69;5035633;28;20598;-35
2022/10/30 09:42:36;;;;;;;;;;;;;;;22.91;50.72;101859.50;5032672;28;20390;-35
2022/10/30 09:45:20;;;;;;;;;;;;;;;23.05;50.52;101862.22;5036109;28;19929;-35
2022/10/30 09:48:00;;;;;;;;;;;;;;;23.17;50.29;101866.06;5035827;28;20338;-35
2022/10/30 09:50:25;;;;;;;;;;;;;;;23.32;50.10;101866.84;5035533;28;19925;-35
2022/10/30 09:53:00;;;;;;;;;;;;;;;23.49;50.07;101867.81;5037933;28;19921;-35
2022/10/30 09:55:30;;;;;;;;;;;;;;;23.70;49.75;101868.19;5038873;28;19978;-35
2022/10/30 09:57:56;;;;;;;;;;;;;;;23.88;49.48;101869.16;5039673;28;19921;-35
2022/10/30 10:00:24;;;;;;;;;;;;;;;24.01;49.29;101865.53;5035427;28;19925;-35
2022/10/30 10:03:15;;;;;;;;;;;;;;;24.18;49.27;101869.50;5039603;28;20067;-35
2022/10/30 10:05:47;;;;;;;;;;;;;;;24.40;49.06;101858.53;5032873;28;19916;-35
2022/10/30 10:08:16;;;;;;;;;;;;;;;24.56;48.59;101857.00;5041438;28;19932;-35
2022/10/30 10:10:45;;;;;;;;;;;;;;;24.74;48.70;101857.88;5037216;28;19932;-35
2022/10/30 10:13:25;;;;;;;;;;;;;;;24.92;48.19;101845.03;5043177;28;19927;-35
2022/10/30 10:15:53;;;;;;;;;;;;;;;25.06;47.88;101844.94;5044079;28;19916;-36
2022/10/30 10:18:28;;;;;;;;;;;;;;;25.16;47.52;101841.91;5038165;28;19923;-35
2022/10/30 10:20:57;;;;;;;;;;;;;;;25.30;47.47;101834.31;5041794;28;20011;-35
2022/10/30 10:23:29;;;;;;;;;;;;;;;25.46;47.26;101835.47;5041579;28;19932;-36
2022/10/30 10:25:57;;;;;;;;;;;;;;;25.61;47.20;101836.91;5039926;28;19920;-36
2022/10/30 10:28:22;;;;;;;;;;;;;;;25.73;46.87;101830.81;5044745;28;19931;-35
2022/10/30 10:30:59;;;;;;;;;;;;;;;25.79;46.38;101829.50;5043975;28;20294;-35
2022/10/30 10:33:25;;;;;;;;;;;;;;;25.88;46.49;101830.31;5040038;28;19931;-39
2022/10/30 10:36:09;;;;;;;;;;;;;;;26.02;46.47;101814.44;5040690;28;19917;-36
2022/10/30 10:38:57;;;;;;;;;;;;;;;26.17;46.11;101818.59;5041416;28;20367;-35
2022/10/30 10:41:41;;;;;;;;;;;;;;;26.30;45.88;101812.09;5039134;28;19950;-35
2022/10/30 10:44:15;;;;;;;;;;;;;;;26.37;45.57;101812.41;5041689;28;19925;-35
2022/10/30 10:46:46;;;;;;;;;;;;;;;26.41;44.58;101807.09;5036664;28;19921;-35
2022/10/30 10:49:25;;;;;;;;;;;;;;;26.42;44.68;101806.78;5041938;28;20244;-35
2022/10/30 10:51:53;;;;;;;;;;;;;;;26.52;45.14;101796.53;5039860;28;19921;-35
2022/10/30 10:54:18;;;;;;;;;;;;;;;26.50;44.39;101797.66;5047611;28;19999;-35
2022/10/30 10:56:45;;;;;;;;;;;;;;;26.51;44.83;101787.47;5045642;28;20019;-36
2022/10/30 10:59:16;;;;;;;;;;;;;;;26.59;44.43;101786.66;5044205;28;20466;-35
2022/10/30 11:01:44;;;;;;;;;;;;;;;26.65;44.23;101777.06;5044940;28;19966;-35
2022/10/30 11:04:17;;;;;;;;;;;;;;;26.70;43.92;101778.81;5036978;28;19917;-35
2022/10/30 11:06:47;;;;;;;;;;;;;;;26.79;43.96;101768.56;5047509;28;19952;-35
2022/10/30 11:09:15;;;;;;;;;;;;;;;26.89;43.69;101770.91;5036652;28;20329;-35
2022/10/30 11:11:41;;;;;;;;;;;;;;;26.87;42.89;101766.91;5041705;28;19917;-35
2022/10/30 11:14:32;;;;;;;;;;;;;;;26.91;43.21;101762.34;5039140;28;19970;-35
2022/10/30 11:17:02;;;;;;;;;;;;;;;27.00;43.18;101761.19;5041802;28;19927;-36
2022/10/30 11:19:28;;;;;;;;;;;;;;;27.11;42.59;101758.84;5042690;28;19921;-36
2022/10/30 11:21:54;;;;;;;;;;;;;;;27.20;42.80;101753.25;5042209;28;19920;-35
2022/10/30 11:24:32;;;;;;;;;;;;;;;27.23;42.21;101753.38;5048197;28;20409;-36
2022/10/30 11:27:15;;;;;;;;;;;;;;;27.25;41.30;101753.03;5042757;28;20402;-36
2022/10/30 11:29:46;;;;;;;;;;;;;;;27.31;42.05;101754.47;5041586;28;19917;-36
2022/10/30 11:32:16;;;;;;;;;;;;;;;27.32;41.68;101756.88;5034623;28;19924;-36
2022/10/30 11:34:42;;;;;;;;;;;;;;;27.40;41.77;101758.72;5040968;28;20167;-36
2022/10/30 11:37:27;;;;;;;;;;;;;;;27.53;41.51;101753.28;5038789;28;20285;-36
2022/10/30 11:40:00;;;;;;;;;;;;;;;27.73;41.37;101752.47;5043480;28;19921;-36
2022/10/30 11:42:25;;;;;;;;;;;;;;;27.77;41.04;101750.63;5036337;28;21664;-37
2022/10/30 11:44:51;;;;;;;;;;;;;;;27.84;41.31;101745.38;5033914;28;19971;-37
2022/10/30 11:47:22;;;;;;;;;;;;;;;27.95;41.45;101751.25;5040966;28;19944;-36
2022/10/30 11:49:50;;;;;;;;;;;;;;;27.97;40.65;101748.94;5041587;28;19921;-36
2022/10/30 11:52:18;;;;;;;;;;;;;;;28.02;40.60;101750.69;5040589;28;19921;-36
2022/10/30 11:54:49;;;;;;;;;;;;;;;28.13;40.79;101746.31;5040810;28;20113;-36
2022/10/30 11:57:20;;;;;;;;;;;;;;;28.28;40.70;101749.25;5041480;28;19948;-36
2022/10/30 11:59:46;;;;;;;;;;;;;;;28.36;40.48;101744.75;5039965;28;20437;-37
2022/10/30 12:02:25;;;;;;;;;;;;;;;28.49;40.41;101742.81;5040729;28;19921;-36
2022/10/30 12:04:51;;;;;;;;;;;;;;;28.66;40.57;101737.03;5037986;28;19923;-36
2022/10/30 12:07:22;;;;;;;;;;;;;;;28.73;40.10;101741.97;5036163;28;19920;-36
2022/10/30 12:09:48;;;;;;;;;;;;;;;28.88;40.30;101744.03;5043828;28;20419;-36
2022/10/30 12:12:27;;;;;;;;;;;;;;;28.95;39.53;101757.25;5043678;28;19929;-36
2022/10/30 12:14:53;;;;;;;;;;;;;;;28.91;39.37;101748.06;5039490;28;19920;-38
2022/10/30 12:17:19;;;;;;;;;;;;;;;28.93;39.66;101752.09;5041267;28;19928;-36
2022/10/30 12:19:47;;;;;;;;;;;;;;;28.96;38.59;101756.09;5044207;28;19924;-36
2022/10/30 12:22:22;;;;;;;;;;;;;;;28.92;38.47;101755.19;5042949;28;19920;-36
2022/10/30 12:24:48;;;;;;;;;;;;;;;28.85;39.53;101755.72;5037539;28;19964;-36
2022/10/30 12:27:15;;;;;;;;;;;;;;;28.80;39.49;101744.94;5040493;28;20208;-36
2022/10/30 12:29:43;;;;;;;;;;;;;;;28.79;39.06;101746.09;5043981;28;20282;-36
2022/10/30 12:32:14;;;;;;;;;;;;;;;28.74;39.10;101747.16;5046087;28;20401;-43
2022/10/30 12:34:43;;;;;;;;;;;;;;;28.71;39.08;101749.78;5042825;28;19921;-36
2022/10/30 12:37:15;;;;;;;;;;;;;;;28.72;39.24;101748.63;5040085;28;20011;-40
2022/10/30 12:39:40;;;;;;;;;;;;;;;28.72;39.20;101743.91;5043725;28;19959;-36
2022/10/30 12:42:09;;;;;;;;;;;;;;;28.70;39.25;101750.94;5042165;28;19990;-36
2022/10/30 12:45:00;;;;;;;;;;;;;;;28.70;39.27;101750.94;5039818;28;20370;-36
2022/10/30 12:47:40;;;;;;;;;;;;;;;28.72;39.03;101751.38;5035549;28;20434;-36
2022/10/30 12:50:26;;;;;;;;;;;;;;;28.83;38.87;101742.28;5043173;28;19990;-36
2022/10/30 12:52:54;;;;;;;;;;;;;;;28.99;38.82;101756.19;5038422;28;20409;-36
2022/10/30 12:55:40;;;;;;;;;;;;;;;29.25;38.57;101754.94;5039044;28;20294;-36
2022/10/30 12:58:08;;;;;;;;;;;;;;;29.48;38.10;101758.81;5042973;28;19925;-36
2022/10/30 13:00:44;;;;;;;;;;;;;;;29.71;37.92;101757.06;5042896;28;20380;-36
2022/10/30 13:03:12;;;;;;;;;;;;;;;30.02;37.65;101761.84;5038617;28;19948;-36
2022/10/30 13:05:44;;;;;;;;;;;;;;;30.27;37.38;101764.44;5040805;28;19967;-36
2022/10/30 13:08:18;;;;;;;;;;;;;;;30.35;37.42;101767.03;5042013;28;19944;-37
2022/10/30 13:10:48;;;;;;;;;;;;;;;30.29;36.89;101770.41;5044198;28;19917;-37
2022/10/30 13:13:13;;;;;;;;;;;;;;;30.16;37.32;101777.19;5041108;28;20428;-36
2022/10/30 13:15:47;;;;;;;;;;;;;;;29.98;36.82;101773.94;5041467;28;19920;-36
2022/10/30 13:18:14;;;;;;;;;;;;;;;29.74;37.56;101777.66;5042087;28;20238;-36
2022/10/30 13:20:42;;;;;;;;;;;;;;;29.60;37.63;101772.53;5040654;28;20011;-36
2022/10/30 13:23:10;;;;;;;;;;;;;;;29.54;37.96;101771.19;5036148;28;20152;-36
2022/10/30 13:25:55;;;;;;;;;;;;;;;29.54;37.58;101771.19;5042851;28;19925;-36
2022/10/30 13:28:24;;;;;;;;;;;;;;;29.60;37.69;101764.25;5040326;28;20282;-36
2022/10/30 13:31:16;;;;;;;;;;;;;;;29.63;37.68;101762.78;5042697;28;19925;-36
2022/10/30 13:33:46;;;;;;;;;;;;;;;29.50;37.44;101767.56;5054086;28;19928;-37
2022/10/30 13:36:26;;;;;;;;;;;;;;;29.32;38.04;101767.00;5041439;28;19913;-37
2022/10/30 13:39:10;;;;;;;;;;;;;;;29.23;38.34;101765.53;5042140;28;19956;-36
2022/10/30 13:41:41;;;;;;;;;;;;;;;29.25;38.05;101763.22;5043412;28;19924;-36
2022/10/30 13:44:22;;;;;;;;;;;;;;;29.31;38.38;101761.84;5040200;28;19917;-36
2022/10/30 13:46:50;;;;;;;;;;;;;;;29.46;38.04;101766.66;5045775;28;19925;-36
2022/10/30 13:49:32;;;;;;;;;;;;;;;29.62;37.84;101767.47;5045184;28;19916;-36
2022/10/30 13:52:05;;;;;;;;;;;;;;;29.68;37.84;101763.31;5044914;28;19917;-36
2022/10/30 13:54:39;;;;;;;;;;;;;;;29.71;37.51;101762.59;5045966;28;19921;-36
2022/10/30 13:57:12;;;;;;;;;;;;;;;29.71;37.31;101759.03;5043256;28;19995;-36
2022/10/30 14:00:01;;;;;;;;;;;;;;;29.72;37.76;101768.94;5043541;28;19925;-36